Home > Products > Valid Products > TAF

000
FTPA31 PHFO 311433 AAA
TAFHNL
TAF AMD
PHNL 311433Z 3115/0118 34004KT P6SM VCSH FEW025 SCT050
     FM312000 05011G18KT P6SM VCSH FEW025 BKN045
     FM010500 05009KT P6SM FEW025 BKN050=



000
FTPA31 PHFO 301733
TAFHNL
TAF
PHNL 301733Z 3018/3124 VRB03KT P6SM FEW030 SCT050
     FM302100 08010G16KT P6SM SCT030 BKN050
     FM310800 VRB03KT P6SM SCT030 BKN050
     FM312100 08010G16KT P6SM SCT030 BKN050=



000
FTPA31 PHFO 301432 AAA
TAFHNL
TAF AMD
PHNL 301432Z 3015/3118 34005KT P6SM FEW025
     FM302100 04010KT P6SM FEW025 BKN050
     FM310500 03007KT P6SM FEW025 BKN045=



000
FTPA31 PHFO 301120
TAFHNL
TAF
PHNL 301120Z 3012/3118 34005KT P6SM FEW025 SCT050
     FM302100 04010KT P6SM FEW025 BKN050
     FM310500 03007KT P6SM FEW025 BKN045=



000
FTPA31 PHFO 300425 AAB
TAFHNL
TAF AMD
PHNL 300425Z 3004/3106 VRB06KT P6SM VCSH SCT025 BKN045
      TEMPO 3004/3005 04010KT 1 1/2SM +SHRA BR BKN025 OVC035
     FM301000 35003KT P6SM SCT025 BKN045
     FM302000 08010KT P6SM FEW025 BKN050=



000
FTPA31 PHFO 300301 AAA
TAFHNL
TAF AMD
PHNL 300301Z 3003/3106 17006KT P6SM SCT025 SCT040
     FM300400 VRB04KT P6SM SCT025 BKN045
     FM301000 35003KT P6SM SCT025 BKN045
     FM302000 08010KT P6SM FEW025 BKN050=



000
FTPA31 PHFO 292137 AAB
TAFHNL
TAF AMD
PHNL 292137Z 2922/3024 18008KT P6SM SCT025 SCT040
     FM300400 28005KT P6SM SCT025 BKN050
     FM300800 35003KT P6SM SCT025 SCT050
     FM302000 08010KT P6SM SCT025 BKN050=



000
FTPA31 PHFO 291727
TAFHNL
TAF
PHNL 291727Z 2918/3024 35003KT P6SM SCT025
     FM292000 18008KT P6SM SCT025 SCT040
     FM300000 20008KT P6SM VCSH SCT025 BKN040
     FM300400 30005KT P6SM SCT025 BKN050
     FM300800 35003KT P6SM SCT025 SCT050
     FM302000 08010KT P6SM SCT025 BKN050=



000
FTPA31 PHFO 290515 AAB
TAFHNL
TAF AMD
PHNL 290515Z 2905/3006 VRB03KT P6SM VCSH SCT025 BKN050
      TEMPO 2905/2906 33010G20KT 2SM +SHRA BR BKN015
     FM290600 VRB03KT P6SM SCT025 SCT060
     FM292000 18008KT P6SM VCSH SCT025 SCT060
     FM300500 VRB04KT P6SM SCT025 BKN060=



    US Dept of Commerce
    National Oceanic and Atmospheric Administration
    National Weather Service
    1325 East West Highway
    Silver Spring, MD 20910
    Page Author: NWS Internet Services Team
Disclaimer
Information Quality
Credits
Glossary
Privacy Policy
Freedom of Information Act (FOIA)
About Us
Career Opportunities